sensor_id;sensor_type;location;lat;lon;timestamp;pressure;altitude;pressure_sealevel;temperature;humidity
75418;BME280;63997;52.112;5.420;2023-04-01T00:01:59;99172.38;;;9.60;95.78
75418;BME280;63997;52.112;5.420;2023-04-01T00:04:25;99167.84;;;9.60;95.87
75418;BME280;63997;52.112;5.420;2023-04-01T00:06:51;99166.72;;;9.61;95.97
75418;BME280;63997;52.112;5.420;2023-04-01T00:09:18;99172.03;;;9.61;95.78
75418;BME280;63997;52.112;5.420;2023-04-01T00:11:45;99168.25;;;9.62;95.77
75418;BME280;63997;52.112;5.420;2023-04-01T00:14:11;99169.38;;;9.61;95.94
75418;BME280;63997;52.112;5.420;2023-04-01T00:16:37;99173.53;;;9.62;95.78
75418;BME280;63997;52.112;5.420;2023-04-01T00:19:04;99177.72;;;9.63;96.06
75418;BME280;63997;52.112;5.420;2023-04-01T00:21:30;99173.94;;;9.64;95.99
75418;BME280;63997;52.112;5.420;2023-04-01T00:23:57;99182.69;;;9.65;95.87
75418;BME280;63997;52.112;5.420;2023-04-01T00:26:23;99180.81;;;9.65;96.09
75418;BME280;63997;52.112;5.420;2023-04-01T00:28:51;99178.16;;;9.65;95.99
75418;BME280;63997;52.112;5.420;2023-04-01T00:31:17;99180.09;;;9.68;95.94
75418;BME280;63997;52.112;5.420;2023-04-01T00:33:44;99180.47;;;9.67;95.79
75418;BME280;63997;52.112;5.420;2023-04-01T00:36:14;99181.22;;;9.67;95.96
75418;BME280;63997;52.112;5.420;2023-04-01T00:38:41;99174.03;;;9.68;96.00
75418;BME280;63997;52.112;5.420;2023-04-01T00:41:10;99182.75;;;9.68;95.93
75418;BME280;63997;52.112;5.420;2023-04-01T00:43:42;99184.28;;;9.69;95.85
75418;BME280;63997;52.112;5.420;2023-04-01T00:46:09;99183.13;;;9.67;95.79
75418;BME280;63997;52.112;5.420;2023-04-01T00:48:38;99181.22;;;9.67;95.74
75418;BME280;63997;52.112;5.420;2023-04-01T00:51:18;99180.47;;;9.67;95.65
75418;BME280;63997;52.112;5.420;2023-04-01T00:53:49;99185.00;;;9.66;95.86
75418;BME280;63997;52.112;5.420;2023-04-01T00:56:38;99189.88;;;9.64;95.27
75418;BME280;63997;52.112;5.420;2023-04-01T00:59:11;99189.13;;;9.64;95.25
75418;BME280;63997;52.112;5.420;2023-04-01T01:01:39;99186.81;;;9.62;95.47
75418;BME280;63997;52.112;5.420;2023-04-01T01:04:06;99193.66;;;9.63;95.31
75418;BME280;63997;52.112;5.420;2023-04-01T01:09:29;99195.91;;;9.61;95.24
75418;BME280;63997;52.112;5.420;2023-04-01T01:12:02;99195.53;;;9.63;95.06
75418;BME280;63997;52.112;5.420;2023-04-01T01:14:38;99200.09;;;9.62;95.04
75418;BME280;63997;52.112;5.420;2023-04-01T01:17:13;99199.69;;;9.60;94.88
75418;BME280;63997;52.112;5.420;2023-04-01T01:19:55;99202.66;;;9.59;95.11
75418;BME280;63997;52.112;5.420;2023-04-01T01:25:33;99201.50;;;9.56;95.22
75418;BME280;63997;52.112;5.420;2023-04-01T01:31:17;99202.63;;;9.55;95.31
75418;BME280;63997;52.112;5.420;2023-04-01T01:34:16;99206.72;;;9.52;95.07
75418;BME280;63997;52.112;5.420;2023-04-01T01:36:53;99210.09;;;9.49;94.94
75418;BME280;63997;52.112;5.420;2023-04-01T01:39:25;99214.97;;;9.47;94.93
75418;BME280;63997;52.112;5.420;2023-04-01T01:41:55;99216.88;;;9.47;94.92
75418;BME280;63997;52.112;5.420;2023-04-01T01:44:25;99211.91;;;9.45;95.08
75418;BME280;63997;52.112;5.420;2023-04-01T01:46:52;99211.91;;;9.45;95.17
75418;BME280;63997;52.112;5.420;2023-04-01T01:49:19;99213.81;;;9.45;95.07
75418;BME280;63997;52.112;5.420;2023-04-01T01:51:46;99214.50;;;9.42;94.98
75418;BME280;63997;52.112;5.420;2023-04-01T01:54:15;99221.69;;;9.41;94.79
75418;BME280;63997;52.112;5.420;2023-04-01T01:56:48;99224.69;;;9.40;94.87
75418;BME280;63997;52.112;5.420;2023-04-01T01:59:18;99220.50;;;9.39;94.75
75418;BME280;63997;52.112;5.420;2023-04-01T02:01:49;99212.13;;;9.37;94.73
75418;BME280;63997;52.112;5.420;2023-04-01T02:04:17;99220.09;;;9.37;94.89
75418;BME280;63997;52.112;5.420;2023-04-01T02:07:03;99215.91;;;9.36;94.71
75418;BME280;63997;52.112;5.420;2023-04-01T02:09:32;99224.22;;;9.34;94.75
75418;BME280;63997;52.112;5.420;2023-04-01T02:12:03;99228.34;;;9.32;94.74
75418;BME280;63997;52.112;5.420;2023-04-01T02:14:43;99220.72;;;9.30;94.75
75418;BME280;63997;52.112;5.420;2023-04-01T02:17:15;99226.03;;;9.30;94.62
75418;BME280;63997;52.112;5.420;2023-04-01T02:19:49;99232.44;;;9.29;94.60
75418;BME280;63997;52.112;5.420;2023-04-01T02:22:21;99233.22;;;9.30;94.91
75418;BME280;63997;52.112;5.420;2023-04-01T02:24:49;99221.75;;;9.25;94.60
75418;BME280;63997;52.112;5.420;2023-04-01T02:27:16;99236.50;;;9.23;94.64
75418;BME280;63997;52.112;5.420;2023-04-01T02:29:43;99227.78;;;9.22;94.66
75418;BME280;63997;52.112;5.420;2023-04-01T02:32:10;99233.44;;;9.21;94.71
75418;BME280;63997;52.112;5.420;2023-04-01T02:34:36;99233.78;;;9.19;94.61
75418;BME280;63997;52.112;5.420;2023-04-01T02:37:03;99228.47;;;9.19;94.66
75418;BME280;63997;52.112;5.420;2023-04-01T02:39:30;99230.78;;;9.21;94.66
75418;BME280;63997;52.112;5.420;2023-04-01T02:41:56;99234.53;;;9.20;95.12
75418;BME280;63997;52.112;5.420;2023-04-01T02:44:23;99242.84;;;9.18;94.98
75418;BME280;63997;52.112;5.420;2023-04-01T02:46:49;99242.84;;;9.18;94.74
75418;BME280;63997;52.112;5.420;2023-04-01T02:49:16;99237.53;;;9.18;94.85
75418;BME280;63997;52.112;5.420;2023-04-01T02:51:42;99241.31;;;9.17;94.89
75418;BME280;63997;52.112;5.420;2023-04-01T02:54:08;99237.50;;;9.15;94.79
75418;BME280;63997;52.112;5.420;2023-04-01T02:56:35;99241.22;;;9.14;94.71
75418;BME280;63997;52.112;5.420;2023-04-01T02:59:01;99242.72;;;9.11;94.99
75418;BME280;63997;52.112;5.420;2023-04-01T03:01:28;99251.84;;;9.14;95.03
75418;BME280;63997;52.112;5.420;2023-04-01T03:03:54;99243.56;;;9.15;95.18
75418;BME280;63997;52.112;5.420;2023-04-01T03:06:21;99247.31;;;9.14;94.91
75418;BME280;63997;52.112;5.420;2023-04-01T03:08:47;99247.75;;;9.16;94.95
75418;BME280;63997;52.112;5.420;2023-04-01T03:11:13;99248.16;;;9.18;95.00
75418;BME280;63997;52.112;5.420;2023-04-01T03:13:40;99255.69;;;9.16;94.86
75418;BME280;63997;52.112;5.420;2023-04-01T03:16:06;99255.69;;;9.16;94.88
75418;BME280;63997;52.112;5.420;2023-04-01T03:18:33;99256.81;;;9.15;94.99
75418;BME280;63997;52.112;5.420;2023-04-01T03:21:13;99262.13;;;9.15;95.10
75418;BME280;63997;52.112;5.420;2023-04-01T03:23:40;99259.88;;;9.17;94.87
75418;BME280;63997;52.112;5.420;2023-04-01T03:26:06;99266.72;;;9.18;95.14
75418;BME280;63997;52.112;5.420;2023-04-01T03:28:34;99272.47;;;9.20;95.02
75418;BME280;63997;52.112;5.420;2023-04-01T03:31:00;99271.66;;;9.20;95.17
75418;BME280;63997;52.112;5.420;2023-04-01T03:33:26;99272.47;;;9.20;95.29
75418;BME280;63997;52.112;5.420;2023-04-01T03:35:53;99277.75;;;9.20;95.04
75418;BME280;63997;52.112;5.420;2023-04-01T03:38:19;99277.75;;;9.20;95.15
75418;BME280;63997;52.112;5.420;2023-04-01T03:40:46;99278.53;;;9.21;95.00
75418;BME280;63997;52.112;5.420;2023-04-01T03:43:12;99279.28;;;9.21;94.98
75418;BME280;63997;52.112;5.420;2023-04-01T03:45:47;99283.47;;;9.22;95.17
75418;BME280;63997;52.112;5.420;2023-04-01T03:48:14;99285.38;;;9.22;95.01
75418;BME280;63997;52.112;5.420;2023-04-01T03:50:41;99286.91;;;9.23;95.33
75418;BME280;63997;52.112;5.420;2023-04-01T03:53:08;99283.47;;;9.22;95.37
75418;BME280;63997;52.112;5.420;2023-04-01T03:55:38;99293.38;;;9.25;95.43
75418;BME280;63997;52.112;5.420;2023-04-01T03:58:05;99300.25;;;9.26;95.51
75418;BME280;63997;52.112;5.420;2023-04-01T04:00:32;99298.69;;;9.25;95.24
75418;BME280;63997;52.112;5.420;2023-04-01T04:02:59;99302.91;;;9.26;95.46
75418;BME280;63997;52.112;5.420;2023-04-01T04:05:26;99295.72;;;9.27;95.38
75418;BME280;63997;52.112;5.420;2023-04-01T04:07:53;99299.13;;;9.27;95.47
75418;BME280;63997;52.112;5.420;2023-04-01T04:10:20;99304.44;;;9.27;95.43
75418;BME280;63997;52.112;5.420;2023-04-01T04:12:46;99310.50;;;9.28;95.59
75418;BME280;63997;52.112;5.420;2023-04-01T04:15:12;99311.25;;;9.28;95.46
75418;BME280;63997;52.112;5.420;2023-04-01T04:17:39;99310.59;;;9.32;95.53
75418;BME280;63997;52.112;5.420;2023-04-01T04:20:06;99316.66;;;9.32;95.45
75418;BME280;63997;52.112;5.420;2023-04-01T04:22:32;99323.06;;;9.31;95.49
75418;BME280;63997;52.112;5.420;2023-04-01T04:24:59;99331.81;;;9.32;95.65
75418;BME280;63997;52.112;5.420;2023-04-01T04:27:25;99325.72;;;9.31;95.43
75418;BME280;63997;52.112;5.420;2023-04-01T04:29:51;99328.81;;;9.33;95.64
75418;BME280;63997;52.112;5.420;2023-04-01T04:32:18;99334.88;;;9.34;95.68
75418;BME280;63997;52.112;5.420;2023-04-01T04:34:44;99337.94;;;9.36;95.51
75418;BME280;63997;52.112;5.420;2023-04-01T04:37:11;99337.25;;;9.39;95.64
75418;BME280;63997;52.112;5.420;2023-04-01T04:39:37;99340.66;;;9.39;95.51
75418;BME280;63997;52.112;5.420;2023-04-01T04:42:03;99347.88;;;9.39;95.54
75418;BME280;63997;52.112;5.420;2023-04-01T04:44:30;99349.75;;;9.38;95.69
75418;BME280;63997;52.112;5.420;2023-04-01T04:46:56;99354.72;;;9.40;95.90
75418;BME280;63997;52.112;5.420;2023-04-01T04:49:24;99359.66;;;9.41;95.79
75418;BME280;63997;52.112;5.420;2023-04-01T04:51:50;99367.28;;;9.43;95.62
75418;BME280;63997;52.112;5.420;2023-04-01T04:54:18;99376.78;;;9.44;95.81
75418;BME280;63997;52.112;5.420;2023-04-01T04:56:44;99377.19;;;9.46;95.81
75418;BME280;63997;52.112;5.420;2023-04-01T04:59:11;99377.97;;;9.46;95.76
75418;BME280;63997;52.112;5.420;2023-04-01T05:01:38;99374.53;;;9.46;95.81
75418;BME280;63997;52.112;5.420;2023-04-01T05:04:05;99384.38;;;9.45;95.73
75418;BME280;63997;52.112;5.420;2023-04-01T05:06:31;99386.69;;;9.47;95.93
75418;BME280;63997;52.112;5.420;2023-04-01T05:08:58;99394.66;;;9.47;96.11
75418;BME280;63997;52.112;5.420;2023-04-01T05:11:24;99401.50;;;9.48;96.16
75418;BME280;63997;52.112;5.420;2023-04-01T05:13:52;99397.31;;;9.47;96.10
75418;BME280;63997;52.112;5.420;2023-04-01T05:16:19;99411.69;;;9.46;96.23
75418;BME280;63997;52.112;5.420;2023-04-01T05:18:46;99406.38;;;9.46;96.01
75418;BME280;63997;52.112;5.420;2023-04-01T05:21:14;99414.34;;;9.46;96.17
75418;BME280;63997;52.112;5.420;2023-04-01T05:23:41;99416.22;;;9.45;96.28
75418;BME280;63997;52.112;5.420;2023-04-01T05:26:11;99417.00;;;9.46;96.35
75418;BME280;63997;52.112;5.420;2023-04-01T05:28:37;99424.59;;;9.47;96.33
75418;BME280;63997;52.112;5.420;2023-04-01T05:31:05;99432.94;;;9.46;96.48
75418;BME280;63997;52.112;5.420;2023-04-01T05:33:32;99436.34;;;9.46;96.55
75418;BME280;63997;52.112;5.420;2023-04-01T05:36:06;99434.47;;;9.47;96.45
75418;BME280;63997;52.112;5.420;2023-04-01T05:38:33;99443.19;;;9.47;96.46
75418;BME280;63997;52.112;5.420;2023-04-01T05:41:01;99446.59;;;9.48;96.41
75418;BME280;63997;52.112;5.420;2023-04-01T05:43:28;99451.16;;;9.47;96.49
75418;BME280;63997;52.112;5.420;2023-04-01T05:45:56;99455.38;;;9.48;96.51
75418;BME280;63997;52.112;5.420;2023-04-01T05:48:22;99457.66;;;9.50;96.34
75418;BME280;63997;52.112;5.420;2023-04-01T05:50:49;99462.97;;;9.50;96.67
75418;BME280;63997;52.112;5.420;2023-04-01T05:53:15;99462.63;;;9.51;96.37
75418;BME280;63997;52.112;5.420;2023-04-01T05:55:42;99462.25;;;9.53;96.52
75418;BME280;63997;52.112;5.420;2023-04-01T05:58:08;99469.56;;;9.56;96.29
75418;BME280;63997;52.112;5.420;2023-04-01T06:00:34;99470.31;;;9.57;96.37
75418;BME280;63997;52.112;5.420;2023-04-01T06:03:01;99476.03;;;9.59;96.46
75418;BME280;63997;52.112;5.420;2023-04-01T06:05:29;99482.13;;;9.59;96.43
75418;BME280;63997;52.112;5.420;2023-04-01T06:08:05;99480.25;;;9.60;96.35
75418;BME280;63997;52.112;5.420;2023-04-01T06:10:55;99486.34;;;9.60;96.37
75418;BME280;63997;52.112;5.420;2023-04-01T06:13:54;99489.41;;;9.62;96.31
75418;BME280;63997;52.112;5.420;2023-04-01T06:22:15;99497.00;;;9.64;96.13
75418;BME280;63997;52.112;5.420;2023-04-01T06:25:00;99502.31;;;9.64;96.28
75418;BME280;63997;52.112;5.420;2023-04-01T06:28:00;99509.97;;;9.65;96.13
75418;BME280;63997;52.112;5.420;2023-04-01T06:36:39;99525.19;;;9.68;95.89
75418;BME280;63997;52.112;5.420;2023-04-01T06:44:56;99530.22;;;9.73;96.38
75418;BME280;63997;52.112;5.420;2023-04-01T06:47:52;99547.34;;;9.76;95.85
75418;BME280;63997;52.112;5.420;2023-04-01T06:52:58;99554.22;;;9.77;95.72
75418;BME280;63997;52.112;5.420;2023-04-01T06:55:50;99558.41;;;9.78;95.88
75418;BME280;63997;52.112;5.420;2023-04-01T06:58:26;99557.97;;;9.76;95.69
75418;BME280;63997;52.112;5.420;2023-04-01T07:00:56;99564.84;;;9.77;95.77
75418;BME280;63997;52.112;5.420;2023-04-01T07:03:37;99570.22;;;9.80;95.80
75418;BME280;63997;52.112;5.420;2023-04-01T07:06:10;99569.44;;;9.80;95.77
75418;BME280;63997;52.112;5.420;2023-04-01T07:08:41;99568.66;;;9.79;95.49
75418;BME280;63997;52.112;5.420;2023-04-01T07:11:22;99586.50;;;9.79;95.65
75418;BME280;63997;52.112;5.420;2023-04-01T07:13:55;99588.38;;;9.78;95.27
75418;BME280;63997;52.112;5.420;2023-04-01T07:16:39;99596.75;;;9.80;95.37
75418;BME280;63997;52.112;5.420;2023-04-01T07:22:41;99599.16;;;9.86;95.17
75418;BME280;63997;52.112;5.420;2023-04-01T07:25:33;99612.06;;;9.87;95.34
75418;BME280;63997;52.112;5.420;2023-04-01T07:28:10;99607.63;;;9.91;95.05
75418;BME280;63997;52.112;5.420;2023-04-01T07:33:35;99619.88;;;9.96;95.01
75418;BME280;63997;52.112;5.420;2023-04-01T07:36:10;99616.09;;;9.97;94.70
75418;BME280;63997;52.112;5.420;2023-04-01T07:38:59;99630.91;;;9.98;95.01
75418;BME280;63997;52.112;5.420;2023-04-01T07:41:51;99626.38;;;9.98;95.02
75418;BME280;63997;52.112;5.420;2023-04-01T07:44:32;99634.03;;;10.00;94.77
75418;BME280;63997;52.112;5.420;2023-04-01T07:47:15;99644.66;;;10.00;94.44
75418;BME280;63997;52.112;5.420;2023-04-01T07:52:41;99648.84;;;10.01;94.66
75418;BME280;63997;52.112;5.420;2023-04-01T08:09:25;99676.25;;;10.05;94.90
75418;BME280;63997;52.112;5.420;2023-04-01T08:17:52;99687.31;;;10.07;94.69
75418;BME280;63997;52.112;5.420;2023-04-01T08:23:03;99701.44;;;10.11;94.93
75418;BME280;63997;52.112;5.420;2023-04-01T08:25:32;99704.53;;;10.13;95.07
75418;BME280;63997;52.112;5.420;2023-04-01T08:28:13;99709.16;;;10.16;94.82
75418;BME280;63997;52.112;5.420;2023-04-01T08:30:55;99712.59;;;10.17;94.80
75418;BME280;63997;52.112;5.420;2023-04-01T08:33:27;99714.53;;;10.20;95.21
75418;BME280;63997;52.112;5.420;2023-04-01T08:36:22;99716.78;;;10.18;94.91
75418;BME280;63997;52.112;5.420;2023-04-01T08:38:56;99729.31;;;10.17;94.78
75418;BME280;63997;52.112;5.420;2023-04-01T08:41:36;99721.34;;;10.17;94.56
75418;BME280;63997;52.112;5.420;2023-04-01T08:47:20;99738.47;;;10.20;94.60
75418;BME280;63997;52.112;5.420;2023-04-01T08:53:15;99746.09;;;10.21;94.54
75418;BME280;63997;52.112;5.420;2023-04-01T08:56:10;99748.88;;;10.25;94.69
75418;BME280;63997;52.112;5.420;2023-04-01T08:59:20;99749.63;;;10.25;94.31
75418;BME280;63997;52.112;5.420;2023-04-01T09:05:21;99761.53;;;10.31;94.19
75418;BME280;63997;52.112;5.420;2023-04-01T09:19:00;99782.47;;;10.49;94.33
75418;BME280;63997;52.112;5.420;2023-04-01T09:24:40;99781.38;;;10.50;94.14
75418;BME280;63997;52.112;5.420;2023-04-01T09:27:29;99783.31;;;10.53;94.18
75418;BME280;63997;52.112;5.420;2023-04-01T09:40:55;99802.03;;;10.72;93.82
75418;BME280;63997;52.112;5.420;2023-04-01T09:43:39;99815.72;;;10.74;93.49
75418;BME280;63997;52.112;5.420;2023-04-01T09:49:17;99814.84;;;10.86;93.29
75418;BME280;63997;52.112;5.420;2023-04-01T09:51:57;99821.09;;;10.94;92.82
75418;BME280;63997;52.112;5.420;2023-04-01T09:57:49;99827.50;;;11.08;92.52
75418;BME280;63997;52.112;5.420;2023-04-01T10:00:44;99821.16;;;11.13;92.64
75418;BME280;63997;52.112;5.420;2023-04-01T10:36:57;99851.63;;;11.89;89.53
75418;BME280;63997;52.112;5.420;2023-04-01T10:39:38;99849.78;;;11.90;89.09
75418;BME280;63997;52.112;5.420;2023-04-01T10:59:07;99870.78;;;11.95;89.76
75418;BME280;63997;52.112;5.420;2023-04-01T11:01:53;99875.34;;;12.14;89.05
75418;BME280;63997;52.112;5.420;2023-04-01T11:04:52;99876.22;;;12.22;88.24
75418;BME280;63997;52.112;5.420;2023-04-01T11:10:44;99876.72;;;12.27;87.77
75418;BME280;63997;52.112;5.420;2023-04-01T11:13:38;99877.72;;;12.19;88.00
75418;BME280;63997;52.112;5.420;2023-04-01T11:25:25;99900.41;;;11.74;88.69
75418;BME280;63997;52.112;5.420;2023-04-01T11:33:40;99917.94;;;11.75;89.67
75418;BME280;63997;52.112;5.420;2023-04-01T11:36:11;99919.47;;;11.76;89.22
75418;BME280;63997;52.112;5.420;2023-04-01T11:39:01;99917.16;;;11.75;89.15
75418;BME280;63997;52.112;5.420;2023-04-01T11:41:41;99924.03;;;11.76;88.76
75418;BME280;63997;52.112;5.420;2023-04-01T11:44:20;99928.06;;;11.85;88.88
75418;BME280;63997;52.112;5.420;2023-04-01T11:46:54;99926.69;;;11.91;87.60
75418;BME280;63997;52.112;5.420;2023-04-01T11:49:31;99932.78;;;11.92;87.46
75418;BME280;63997;52.112;5.420;2023-04-01T11:54:52;99942.56;;;11.88;87.53
75418;BME280;63997;52.112;5.420;2023-04-01T11:57:43;99946.28;;;11.83;87.35
75418;BME280;63997;52.112;5.420;2023-04-01T12:00:35;99951.09;;;11.78;87.46
75418;BME280;63997;52.112;5.420;2023-04-01T12:03:21;99952.16;;;11.73;87.59
75418;BME280;63997;52.112;5.420;2023-04-01T12:06:00;99960.41;;;11.68;87.84
75418;BME280;63997;52.112;5.420;2023-04-01T12:11:52;99971.75;;;11.65;88.11
75418;BME280;63997;52.112;5.420;2023-04-01T12:22:38;99983.50;;;11.80;89.37
75418;BME280;63997;52.112;5.420;2023-04-01T12:25:26;99975.19;;;11.81;89.62
75418;BME280;63997;52.112;5.420;2023-04-01T12:30:37;99978.50;;;11.78;88.70
75418;BME280;63997;52.112;5.420;2023-04-01T12:33:20;99994.31;;;11.71;88.99
75418;BME280;63997;52.112;5.420;2023-04-01T12:36:17;99996.84;;;11.64;89.47
75418;BME280;63997;52.112;5.420;2023-04-01T12:44:16;100003.69;;;11.65;90.16
75418;BME280;63997;52.112;5.420;2023-04-01T12:49:55;100007.66;;;11.71;90.24
75418;BME280;63997;52.112;5.420;2023-04-01T13:09:36;100023.72;;;11.90;89.21
75418;BME280;63997;52.112;5.420;2023-04-01T13:20:57;100040.56;;;11.79;89.17
75418;BME280;63997;52.112;5.420;2023-04-01T13:29:18;100055.53;;;11.68;90.00
75418;BME280;63997;52.112;5.420;2023-04-01T13:37:38;100066.69;;;11.42;90.43
75418;BME280;63997;52.112;5.420;2023-04-01T13:43:03;100067.63;;;11.33;90.89
75418;BME280;63997;52.112;5.420;2023-04-01T13:48:50;100074.50;;;11.34;90.88
75418;BME280;63997;52.112;5.420;2023-04-01T13:51:43;100068.94;;;11.39;91.07
75418;BME280;63997;52.112;5.420;2023-04-01T14:03:14;100087.25;;;11.13;91.95
75418;BME280;63997;52.112;5.420;2023-04-01T14:06:19;100091.38;;;11.10;91.95
75418;BME280;63997;52.112;5.420;2023-04-01T14:08:55;100094.38;;;11.09;92.48
75418;BME280;63997;52.112;5.420;2023-04-01T14:11:36;100111.22;;;11.13;92.57
75418;BME280;63997;52.112;5.420;2023-04-01T14:37:25;100156.50;;;11.01;91.55
75418;BME280;63997;52.112;5.420;2023-04-01T14:40:16;100162.59;;;11.01;91.67
75418;BME280;63997;52.112;5.420;2023-04-01T14:42:59;100162.50;;;10.98;91.25
75418;BME280;63997;52.112;5.420;2023-04-01T14:45:46;100171.41;;;10.90;91.08
75418;BME280;63997;52.112;5.420;2023-04-01T14:48:32;100172.84;;;10.87;91.46
75418;BME280;63997;52.112;5.420;2023-04-01T14:51:16;100183.81;;;10.85;91.39
75418;BME280;63997;52.112;5.420;2023-04-01T14:53:51;100186.59;;;10.89;91.39
75418;BME280;63997;52.112;5.420;2023-04-01T14:59:46;100193.56;;;10.81;91.12
75418;BME280;63997;52.112;5.420;2023-04-01T15:02:33;100198.47;;;10.79;91.11
75418;BME280;63997;52.112;5.420;2023-04-01T15:08:14;100215.97;;;10.80;91.53
75418;BME280;63997;52.112;5.420;2023-04-01T15:13:57;100219.81;;;10.83;91.41
75418;BME280;63997;52.112;5.420;2023-04-01T15:19:57;100238.22;;;10.88;91.79
75418;BME280;63997;52.112;5.420;2023-04-01T15:22:34;100239.88;;;10.93;91.67
75418;BME280;63997;52.112;5.420;2023-04-01T15:25:25;100242.88;;;10.91;91.40
75418;BME280;63997;52.112;5.420;2023-04-01T15:31:13;100256.84;;;11.00;91.44
75418;BME280;63997;52.112;5.420;2023-04-01T15:34:03;100261.38;;;11.00;91.20
75418;BME280;63997;52.112;5.420;2023-04-01T15:36:57;100269.47;;;11.03;90.98
75418;BME280;63997;52.112;5.420;2023-04-01T15:39:51;100270.00;;;11.09;91.07
75418;BME280;63997;52.112;5.420;2023-04-01T15:45:41;100279.00;;;11.04;91.07
75418;BME280;63997;52.112;5.420;2023-04-01T15:50:46;100288.22;;;10.95;90.55
75418;BME280;63997;52.112;5.420;2023-04-01T15:53:36;100292.75;;;10.94;90.95
75418;BME280;63997;52.112;5.420;2023-04-01T15:56:26;100306.31;;;10.89;90.43
75418;BME280;63997;52.112;5.420;2023-04-01T16:01:44;100311.94;;;10.88;90.57
75418;BME280;63997;52.112;5.420;2023-04-01T16:07:03;100334.75;;;10.76;90.18
75418;BME280;63997;52.112;5.420;2023-04-01T16:18:16;100361.69;;;10.63;90.49
75418;BME280;63997;52.112;5.420;2023-04-01T16:21:12;100350.94;;;10.59;90.32
75418;BME280;63997;52.112;5.420;2023-04-01T16:23:48;100362.44;;;10.51;90.42
75418;BME280;63997;52.112;5.420;2023-04-01T16:26:24;100363.88;;;10.48;90.05
75418;BME280;63997;52.112;5.420;2023-04-01T16:29:08;100372.41;;;10.42;90.32
75418;BME280;63997;52.112;5.420;2023-04-01T16:31:46;100379.16;;;10.39;90.16
75418;BME280;63997;52.112;5.420;2023-04-01T16:34:22;100387.91;;;10.40;90.59
75418;BME280;63997;52.112;5.420;2023-04-01T16:37:05;100388.75;;;10.31;90.38
75418;BME280;63997;52.112;5.420;2023-04-01T16:39:49;100397.41;;;10.28;90.54
75418;BME280;63997;52.112;5.420;2023-04-01T16:42:42;100405.22;;;10.25;90.79
75418;BME280;63997;52.112;5.420;2023-04-01T16:45:24;100411.50;;;10.20;90.62
75418;BME280;63997;52.112;5.420;2023-04-01T16:47:59;100417.47;;;10.17;90.94
75418;BME280;63997;52.112;5.420;2023-04-01T16:50:37;100424.09;;;10.11;90.96
75418;BME280;63997;52.112;5.420;2023-04-01T16:56:07;100427.72;;;10.06;90.68
75418;BME280;63997;52.112;5.420;2023-04-01T16:58:43;100436.03;;;10.05;90.46
75418;BME280;63997;52.112;5.420;2023-04-01T17:01:21;100441.19;;;10.01;90.41
75418;BME280;63997;52.112;5.420;2023-04-01T17:03:53;100456.22;;;9.97;90.40
75418;BME280;63997;52.112;5.420;2023-04-01T17:06:31;100449.69;;;9.95;90.57
75418;BME280;63997;52.112;5.420;2023-04-01T17:15:21;100475.41;;;9.82;90.62
75418;BME280;63997;52.112;5.420;2023-04-01T17:18:14;100483.56;;;9.77;90.45
75418;BME280;63997;52.112;5.420;2023-04-01T17:21:04;100497.16;;;9.75;90.58
75418;BME280;63997;52.112;5.420;2023-04-01T17:24:00;100497.47;;;9.74;90.67
75418;BME280;63997;52.112;5.420;2023-04-01T17:26:44;100504.84;;;9.68;90.11
75418;BME280;63997;52.112;5.420;2023-04-01T17:29:55;100512.38;;;9.66;90.28
75418;BME280;63997;52.112;5.420;2023-04-01T17:32:15;100522.06;;;9.62;90.10
75418;BME280;63997;52.112;5.420;2023-04-01T17:34:51;100528.81;;;9.60;89.94
75418;BME280;63997;52.112;5.420;2023-04-01T17:40:16;100534.41;;;9.58;90.27
75418;BME280;63997;52.112;5.420;2023-04-01T17:45:56;100550.22;;;9.54;90.32
75418;BME280;63997;52.112;5.420;2023-04-01T17:51:28;100565.22;;;9.50;90.42
75418;BME280;63997;52.112;5.420;2023-04-01T17:54:25;100570.84;;;9.49;90.57
75418;BME280;63997;52.112;5.420;2023-04-01T17:57:23;100578.03;;;9.48;90.75
75418;BME280;63997;52.112;5.420;2023-04-01T18:02:46;100587.56;;;9.41;90.68
75418;BME280;63997;52.112;5.420;2023-04-01T18:05:26;100598.81;;;9.38;90.33
75418;BME280;63997;52.112;5.420;2023-04-01T18:08:35;100608.50;;;9.34;90.31
75418;BME280;63997;52.112;5.420;2023-04-01T18:16:50;100624.91;;;9.27;90.02
75418;BME280;63997;52.112;5.420;2023-04-01T18:22:42;100642.88;;;9.21;90.10
75418;BME280;63997;52.112;5.420;2023-04-01T18:25:24;100650.34;;;9.19;90.27
75418;BME280;63997;52.112;5.420;2023-04-01T18:30:42;100658.47;;;9.14;90.32
75418;BME280;63997;52.112;5.420;2023-04-01T18:33:22;100672.84;;;9.13;90.15
75418;BME280;63997;52.112;5.420;2023-04-01T18:35:50;100679.88;;;9.09;90.25
75418;BME280;63997;52.112;5.420;2023-04-01T18:38:27;100677.50;;;9.08;90.11
75418;BME280;63997;52.112;5.420;2023-04-01T18:41:11;100687.66;;;9.06;90.37
75418;BME280;63997;52.112;5.420;2023-04-01T18:43:48;100695.78;;;9.00;89.95
75418;BME280;63997;52.112;5.420;2023-04-01T18:46:30;100705.59;;;9.00;90.19
75418;BME280;63997;52.112;5.420;2023-04-01T18:49:29;100711.69;;;9.00;90.17
75418;BME280;63997;52.112;5.420;2023-04-01T18:51:56;100720.44;;;9.01;89.90
75418;BME280;63997;52.112;5.420;2023-04-01T18:54:30;100722.91;;;8.97;90.12
75418;BME280;63997;52.112;5.420;2023-04-01T18:57:12;100729.63;;;8.95;90.08
75418;BME280;63997;52.112;5.420;2023-04-01T18:59:46;100742.09;;;8.94;90.28
75418;BME280;63997;52.112;5.420;2023-04-01T19:02:40;100739.00;;;8.92;89.87
75418;BME280;63997;52.112;5.420;2023-04-01T19:05:20;100747.72;;;8.93;90.11
75418;BME280;63997;52.112;5.420;2023-04-01T19:07:51;100754.09;;;8.92;90.05
75418;BME280;63997;52.112;5.420;2023-04-01T19:19:16;100779.53;;;8.84;89.46
75418;BME280;63997;52.112;5.420;2023-04-01T19:21:56;100782.81;;;8.81;89.32
75418;BME280;63997;52.112;5.420;2023-04-01T19:27:06;100805.41;;;8.79;89.52
75418;BME280;63997;52.112;5.420;2023-04-01T19:29:46;100809.59;;;8.80;89.63
75418;BME280;63997;52.112;5.420;2023-04-01T19:32:51;100829.25;;;8.79;89.52
75418;BME280;63997;52.112;5.420;2023-04-01T19:35:42;100828.81;;;8.77;89.69
75418;BME280;63997;52.112;5.420;2023-04-01T19:40:57;100834.25;;;8.71;89.46
75418;BME280;63997;52.112;5.420;2023-04-01T19:43:51;100842.78;;;8.68;89.30